createdAt,value
2019-01-25T00:01:34.685Z,49.80
2019-01-25T00:04:06.264Z,37.53
2019-01-25T00:06:43.432Z,48.87
2019-01-25T00:09:09.906Z,49.80
2019-01-25T00:11:40.472Z,35.20
2019-01-25T00:14:11.472Z,56.45
2019-01-25T00:16:46.541Z,50.70
2019-01-25T00:19:16.387Z,52.60
2019-01-25T00:21:47.425Z,41.65
2019-01-25T00:24:18.508Z,48.05
2019-01-25T00:26:49.407Z,36.73
2019-01-25T00:29:22.356Z,52.50
2019-01-25T00:31:53.076Z,47.20
2019-01-25T00:34:24.074Z,45.88
2019-01-25T00:36:59.214Z,41.98
2019-01-25T00:39:30.302Z,42.65
2019-01-25T00:42:02.466Z,48.08
2019-01-25T00:44:33.502Z,39.50
2019-01-25T00:47:04.512Z,41.53
2019-01-25T00:49:34.543Z,41.35
2019-01-25T00:52:06.670Z,44.60
2019-01-25T00:54:37.914Z,44.98
2019-01-25T00:57:09.021Z,46.50
2019-01-25T00:59:40.006Z,31.48
2019-01-25T01:02:11.022Z,39.80
2019-01-25T01:04:42.438Z,44.20
2019-01-25T01:07:12.422Z,44.50
2019-01-25T01:09:45.026Z,35.15
2019-01-25T01:12:16.103Z,42.15
2019-01-25T01:14:54.786Z,53.60
2019-01-25T01:17:25.806Z,40.43
2019-01-25T01:19:56.823Z,44.03
2019-01-25T01:22:27.784Z,56.48
2019-01-25T01:24:58.792Z,50.00
2019-01-25T01:27:31.023Z,47.38
2019-01-25T01:30:02.051Z,38.08
2019-01-25T01:32:33.711Z,46.20
2019-01-25T01:35:04.606Z,38.23
2019-01-25T01:37:35.582Z,42.10
2019-01-25T01:40:08.602Z,29.70
2019-01-25T01:42:40.504Z,38.35
2019-01-25T01:45:11.011Z,28.55
2019-01-25T01:47:40.949Z,45.92
2019-01-25T01:50:18.752Z,29.90
2019-01-25T01:52:50.627Z,45.63
2019-01-25T01:55:23.973Z,33.05
2019-01-25T01:57:54.701Z,38.58
2019-01-25T02:00:26.622Z,31.57
2019-01-25T02:02:59.190Z,48.10
2019-01-25T02:05:31.912Z,40.12
2019-01-25T02:08:02.905Z,39.30
2019-01-25T02:10:33.982Z,39.08
2019-01-25T02:13:03.879Z,42.90
2019-01-25T02:15:35.227Z,41.50
2019-01-25T02:18:10.625Z,28.77
2019-01-25T02:20:46.303Z,45.23
2019-01-25T02:23:19.522Z,40.30
2019-01-25T02:25:52.048Z,58.28
2019-01-25T02:28:23.039Z,40.17
2019-01-25T02:30:54.689Z,38.10
2019-01-25T02:33:25.671Z,35.75
2019-01-25T02:35:58.466Z,40.63
2019-01-25T02:38:31.628Z,46.95
2019-01-25T02:41:03.047Z,39.90
2019-01-25T02:43:35.583Z,44.18
2019-01-25T02:46:08.491Z,42.50
2019-01-25T02:48:39.186Z,33.95
2019-01-25T02:51:10.185Z,40.20
2019-01-25T02:53:41.150Z,42.83
2019-01-25T02:56:13.706Z,63.98
2019-01-25T02:58:44.673Z,47.95
2019-01-25T03:01:15.624Z,48.87
2019-01-25T03:03:47.383Z,44.85
2019-01-25T03:06:18.385Z,48.68
2019-01-25T03:08:51.268Z,49.77
2019-01-25T03:11:23.840Z,42.55
2019-01-25T03:13:56.254Z,57.43
2019-01-25T03:16:26.147Z,49.95
2019-01-25T03:18:59.628Z,28.75
2019-01-25T03:21:29.542Z,33.48
2019-01-25T03:24:04.163Z,44.73
2019-01-25T03:26:35.151Z,37.60
2019-01-25T03:29:05.144Z,17.27
2019-01-25T03:31:37.855Z,15.03
2019-01-25T03:34:08.801Z,25.75
2019-01-25T03:36:39.747Z,13.50
2019-01-25T03:39:10.833Z,34.88
2019-01-25T03:41:44.614Z,39.60
2019-01-25T03:44:17.135Z,34.67
2019-01-25T03:46:48.144Z,17.52
2019-01-25T03:49:19.830Z,27.85
2019-01-25T03:51:49.664Z,22.40
2019-01-25T03:54:20.742Z,39.73
2019-01-25T03:56:52.143Z,38.23
2019-01-25T03:59:23.746Z,29.72
2019-01-25T04:01:53.664Z,33.85
2019-01-25T04:04:27.512Z,40.70
2019-01-25T04:07:01.264Z,40.38
2019-01-25T04:09:32.343Z,27.05
2019-01-25T04:12:03.299Z,44.23
2019-01-25T04:14:34.222Z,40.38
2019-01-25T04:17:09.187Z,47.58
2019-01-25T04:19:41.434Z,43.52
2019-01-25T04:22:12.991Z,44.10
2019-01-25T04:24:43.902Z,42.83
2019-01-25T04:27:18.943Z,34.48
2019-01-25T04:29:51.487Z,38.92
2019-01-25T04:32:22.440Z,53.92
2019-01-25T04:34:55.423Z,47.62
2019-01-25T04:37:26.046Z,70.03
2019-01-25T04:39:57.024Z,46.75
2019-01-25T04:42:29.582Z,27.35
2019-01-25T04:45:00.545Z,34.33
2019-01-25T04:47:31.631Z,43.17
2019-01-25T04:50:02.691Z,36.73
2019-01-25T04:52:33.267Z,28.62
2019-01-25T04:55:07.416Z,42.27
2019-01-25T04:57:41.433Z,36.45
2019-01-25T05:00:17.033Z,39.30
2019-01-25T05:02:55.583Z,36.63
2019-01-25T05:05:30.062Z,35.83
2019-01-25T05:08:19.634Z,42.40
2019-01-25T05:10:50.986Z,30.48
2019-01-25T05:13:24.262Z,38.95
2019-01-25T05:15:56.871Z,30.68
2019-01-25T05:18:27.931Z,41.60
2019-01-25T05:21:01.408Z,26.62
2019-01-25T05:23:31.316Z,39.03
2019-01-25T05:26:02.302Z,33.75
2019-01-25T05:28:36.256Z,27.77
2019-01-25T05:31:08.316Z,35.28
2019-01-25T05:33:38.143Z,33.85
2019-01-25T05:36:09.129Z,30.43
2019-01-25T05:38:40.285Z,24.95
2019-01-25T05:41:15.472Z,18.35
2019-01-25T05:43:47.041Z,45.78
2019-01-25T05:46:16.903Z,34.88
2019-01-25T05:48:49.445Z,39.05
2019-01-25T05:51:20.423Z,40.45
2019-01-25T05:53:50.384Z,36.45
2019-01-25T05:56:22.103Z,33.20
2019-01-25T05:58:53.542Z,40.45
2019-01-25T06:01:24.616Z,22.25
2019-01-25T06:03:55.702Z,26.02
2019-01-25T06:06:25.544Z,28.55
2019-01-25T06:08:56.585Z,25.30
2019-01-25T06:11:35.247Z,39.08
2019-01-25T06:14:00.586Z,26.05
2019-01-25T06:16:31.637Z,37.48
2019-01-25T06:19:02.743Z,28.07
2019-01-25T06:21:32.742Z,24.30
2019-01-25T06:24:02.582Z,29.07
2019-01-25T06:26:33.502Z,12.35
2019-01-25T06:29:04.542Z,41.23
2019-01-25T06:31:36.059Z,22.50
2019-01-25T06:34:07.069Z,34.33
2019-01-25T06:36:38.189Z,29.25
2019-01-25T06:39:11.302Z,29.98
2019-01-25T06:41:44.249Z,40.67
2019-01-25T06:44:13.821Z,32.80
2019-01-25T06:46:44.590Z,13.03
2019-01-25T06:49:15.663Z,22.37
2019-01-25T06:51:46.622Z,35.63
2019-01-25T06:54:17.581Z,31.55
2019-01-25T06:56:48.543Z,37.75
2019-01-25T06:59:22.428Z,19.67
2019-01-25T07:01:58.301Z,27.62
2019-01-25T07:04:29.470Z,36.03
2019-01-25T07:07:00.590Z,34.18
2019-01-25T07:09:31.623Z,28.35
2019-01-25T07:12:02.623Z,22.75
2019-01-25T07:14:33.704Z,33.75
2019-01-25T07:17:03.625Z,36.68
2019-01-25T07:19:34.662Z,29.77
2019-01-25T07:22:05.630Z,33.42
2019-01-25T07:24:36.666Z,31.55
2019-01-25T07:27:07.673Z,18.67
2019-01-25T07:29:38.663Z,27.82
2019-01-25T07:32:09.726Z,43.78
2019-01-25T07:34:40.930Z,43.98
2019-01-25T07:37:13.082Z,21.35
2019-01-25T07:39:44.104Z,29.40
2019-01-25T07:42:15.121Z,10.68
2019-01-25T07:44:46.911Z,42.43
2019-01-25T07:47:19.463Z,12.63
2019-01-25T07:49:50.485Z,36.60
2019-01-25T07:52:21.511Z,38.75
2019-01-25T07:54:54.752Z,38.80
2019-01-25T07:57:27.433Z,41.75
2019-01-25T07:59:59.248Z,44.25
2019-01-25T08:02:31.503Z,34.70
2019-01-25T08:05:03.302Z,43.05
2019-01-25T08:07:34.582Z,31.10
2019-01-25T08:10:06.424Z,27.65
2019-01-25T08:12:38.244Z,20.43
2019-01-25T08:15:11.303Z,47.23
2019-01-25T08:17:41.183Z,42.65
2019-01-25T08:20:14.387Z,15.78
2019-01-25T08:22:45.663Z,42.35
2019-01-25T08:25:16.691Z,31.20
2019-01-25T08:27:49.032Z,36.23
2019-01-25T08:30:27.431Z,33.95
2019-01-25T08:32:56.803Z,28.67
2019-01-25T08:35:26.865Z,39.20
2019-01-25T08:37:57.886Z,20.17
2019-01-25T08:40:28.560Z,21.73
2019-01-25T08:42:59.622Z,32.23
2019-01-25T08:45:29.544Z,26.85
2019-01-25T08:48:00.613Z,34.78
2019-01-25T08:50:31.783Z,38.17
2019-01-25T08:53:04.248Z,24.87
2019-01-25T08:55:35.344Z,16.30
2019-01-25T08:58:06.383Z,12.60
2019-01-25T09:00:38.521Z,29.02
2019-01-25T09:03:09.583Z,32.55
2019-01-25T09:05:40.584Z,29.65
2019-01-25T09:08:10.984Z,50.73
2019-01-25T09:10:42.543Z,43.42
2019-01-25T09:13:13.533Z,26.05
2019-01-25T09:15:44.513Z,34.33
2019-01-25T09:18:16.110Z,35.35
2019-01-25T09:20:45.985Z,38.35
2019-01-25T09:23:16.110Z,23.98
2019-01-25T09:25:46.110Z,37.98
2019-01-25T09:28:17.032Z,39.45
2019-01-25T09:30:49.459Z,30.30
2019-01-25T09:33:20.190Z,16.37
2019-01-25T09:35:51.622Z,36.28
2019-01-25T09:38:24.186Z,35.33
2019-01-25T09:40:55.321Z,48.08
2019-01-25T09:43:27.947Z,32.20
2019-01-25T09:45:58.662Z,44.85
2019-01-25T09:48:30.844Z,32.98
2019-01-25T09:51:01.983Z,31.15
2019-01-25T09:53:31.903Z,30.40
2019-01-25T09:56:03.070Z,26.00
2019-01-25T09:58:34.110Z,8.68
2019-01-25T10:01:06.351Z,28.67
2019-01-25T10:03:37.462Z,19.23
2019-01-25T10:06:07.461Z,15.25
2019-01-25T10:08:40.103Z,12.93
2019-01-25T10:11:11.109Z,16.10
2019-01-25T10:13:44.382Z,10.68
2019-01-25T10:16:15.502Z,27.17
2019-01-25T10:18:46.542Z,31.02
2019-01-25T10:21:17.661Z,43.90
2019-01-25T10:23:48.663Z,66.40
2019-01-25T10:26:19.623Z,37.60
2019-01-25T10:28:52.064Z,20.30
2019-01-25T10:31:24.662Z,21.55
2019-01-25T10:33:55.902Z,35.48
2019-01-25T10:36:26.068Z,8.20
2019-01-25T10:38:57.702Z,14.73
2019-01-25T10:41:28.701Z,21.93
2019-01-25T10:43:59.790Z,13.15
2019-01-25T10:46:29.607Z,20.02
2019-01-25T10:49:00.587Z,26.70
2019-01-25T10:51:30.543Z,27.13
2019-01-25T10:54:01.705Z,20.75
2019-01-25T10:56:32.702Z,22.82
2019-01-25T10:59:03.792Z,27.48
2019-01-25T11:01:34.831Z,16.45
2019-01-25T11:04:05.863Z,33.25
2019-01-25T11:06:36.912Z,35.75
2019-01-25T11:09:12.223Z,40.38
2019-01-25T11:11:45.462Z,38.88
2019-01-25T11:14:16.551Z,17.00
2019-01-25T11:16:48.230Z,19.20
2019-01-25T11:19:19.271Z,24.43
2019-01-25T11:21:50.266Z,14.80
2019-01-25T11:24:21.313Z,32.78
2019-01-25T11:26:52.623Z,18.48
2019-01-25T11:29:24.462Z,34.20
2019-01-25T11:31:55.578Z,16.45
2019-01-25T11:34:25.505Z,39.70
2019-01-25T11:36:56.582Z,25.55
2019-01-25T11:39:28.119Z,29.18
2019-01-25T11:41:59.304Z,18.40
2019-01-25T11:44:30.382Z,28.87
2019-01-25T11:47:01.503Z,22.48
2019-01-25T11:49:32.554Z,6.33
2019-01-25T11:52:03.625Z,26.70
2019-01-25T11:54:35.149Z,16.95
2019-01-25T11:57:06.142Z,17.77
2019-01-25T11:59:36.150Z,37.10
2019-01-25T12:02:07.304Z,25.95
2019-01-25T12:04:39.304Z,4.60
2019-01-25T12:07:10.303Z,19.52
2019-01-25T12:09:41.343Z,23.67
2019-01-25T12:12:12.391Z,29.15
2019-01-25T12:14:42.265Z,24.23
2019-01-25T12:17:12.224Z,42.35
2019-01-25T12:19:42.231Z,31.02
2019-01-25T12:22:13.304Z,44.27
2019-01-25T12:24:46.630Z,24.18
2019-01-25T12:27:19.988Z,2.37
2019-01-25T12:29:49.902Z,27.77
2019-01-25T12:32:20.911Z,26.45
2019-01-25T12:34:52.790Z,36.03
2019-01-25T12:37:24.560Z,19.10
2019-01-25T12:39:54.366Z,23.55
2019-01-25T12:42:25.512Z,18.00
2019-01-25T12:44:56.664Z,19.00
2019-01-25T12:47:27.711Z,33.30
2019-01-25T12:50:00.298Z,7.85
2019-01-25T12:52:31.783Z,13.62
2019-01-25T12:55:03.991Z,29.98
2019-01-25T12:57:36.670Z,31.52
2019-01-25T13:00:09.903Z,31.57
2019-01-25T13:02:40.954Z,1.27
2019-01-25T13:05:14.303Z,17.82
2019-01-25T13:07:46.190Z,66.35
2019-01-25T13:10:20.484Z,39.70
2019-01-25T13:12:50.466Z,39.08
2019-01-25T13:15:21.502Z,42.98
2019-01-25T13:17:52.511Z,55.83
2019-01-25T13:20:33.070Z,43.52
2019-01-25T13:23:04.110Z,39.67
2019-01-25T13:25:35.186Z,45.90
2019-01-25T13:28:06.271Z,34.23
2019-01-25T13:30:37.385Z,41.50
2019-01-25T13:33:08.750Z,12.47
2019-01-25T13:35:39.866Z,36.17
2019-01-25T13:38:10.982Z,54.75
2019-01-25T13:40:42.023Z,42.15
2019-01-25T13:43:11.990Z,45.17
2019-01-25T13:45:44.502Z,39.27
2019-01-25T13:48:15.542Z,42.48
2019-01-25T13:50:47.352Z,44.60
2019-01-25T13:53:19.118Z,30.68
2019-01-25T13:55:50.223Z,47.33
2019-01-25T13:58:20.190Z,49.73
2019-01-25T14:00:51.392Z,47.30
2019-01-25T14:03:22.382Z,50.33
2019-01-25T14:05:53.390Z,55.80
2019-01-25T14:08:24.391Z,47.60
2019-01-25T14:10:55.391Z,66.28
2019-01-25T14:13:28.750Z,74.65
2019-01-25T14:15:59.670Z,57.55
2019-01-25T14:18:30.783Z,52.93
2019-01-25T14:21:00.905Z,59.65
2019-01-25T14:23:31.910Z,54.67
2019-01-25T14:26:02.950Z,60.35
2019-01-25T14:28:33.982Z,61.00
2019-01-25T14:31:05.023Z,82.15
2019-01-25T14:33:35.862Z,57.90
2019-01-25T14:36:06.868Z,116.57
2019-01-25T14:38:39.991Z,78.57
2019-01-25T14:41:09.904Z,57.95
2019-01-25T14:43:40.862Z,84.30
2019-01-25T14:46:11.943Z,59.83
2019-01-25T14:48:42.951Z,36.88
2019-01-25T14:51:13.497Z,45.38
2019-01-25T14:53:43.507Z,45.60
2019-01-25T14:56:13.347Z,29.80
2019-01-25T14:58:45.026Z,16.77
2019-01-25T15:01:16.104Z,32.85
2019-01-25T15:03:47.223Z,40.58
2019-01-25T15:06:17.343Z,29.48
2019-01-25T15:08:48.383Z,37.88
2019-01-25T15:11:19.699Z,37.90
2019-01-25T15:13:51.062Z,38.23
2019-01-25T15:16:23.561Z,20.40
2019-01-25T15:18:53.510Z,24.52
2019-01-25T15:21:24.585Z,12.70
2019-01-25T15:23:55.782Z,19.80
2019-01-25T15:26:27.273Z,49.98
2019-01-25T15:28:58.238Z,56.05
2019-01-25T15:31:29.232Z,8.95
2019-01-25T15:34:00.311Z,6.53
2019-01-25T15:36:32.223Z,20.75
2019-01-25T15:39:05.382Z,4.70
2019-01-25T15:41:36.382Z,9.28
2019-01-25T15:44:10.123Z,39.65
2019-01-25T15:46:41.117Z,13.20
2019-01-25T15:49:12.104Z,28.32
2019-01-25T15:51:41.426Z,36.23
2019-01-25T15:54:12.922Z,20.08
2019-01-25T15:56:45.794Z,23.42
2019-01-25T15:59:16.707Z,23.30
2019-01-25T16:01:49.863Z,8.30
2019-01-25T16:04:20.860Z,30.77
2019-01-25T16:06:51.542Z,35.05
2019-01-25T16:09:23.693Z,13.62
2019-01-25T16:11:54.872Z,9.10
2019-01-25T16:14:26.147Z,9.38
2019-01-25T16:16:57.814Z,16.80
2019-01-25T16:19:30.744Z,7.42
2019-01-25T16:22:03.350Z,13.05
2019-01-25T16:24:35.039Z,30.10
2019-01-25T16:27:05.143Z,32.55
2019-01-25T16:29:36.588Z,16.27
2019-01-25T16:32:07.908Z,18.73
2019-01-25T16:34:39.230Z,20.75
2019-01-25T16:37:10.304Z,15.95
2019-01-25T16:39:41.316Z,15.95
2019-01-25T16:42:12.586Z,16.37
2019-01-25T16:44:43.746Z,23.55
2019-01-25T16:47:13.906Z,18.92
2019-01-25T16:50:49.784Z,16.77
2019-01-25T16:53:21.032Z,13.78
2019-01-25T16:55:52.109Z,8.13
2019-01-25T16:58:24.743Z,8.60
2019-01-25T17:00:55.985Z,6.10
2019-01-25T17:03:27.105Z,28.40
2019-01-25T17:05:59.703Z,15.48
2019-01-25T17:08:31.065Z,12.95
2019-01-25T17:11:02.352Z,7.92
2019-01-25T17:13:33.702Z,22.25
2019-01-25T17:16:04.982Z,26.23
2019-01-25T17:18:36.351Z,17.92
2019-01-25T17:21:09.061Z,28.35
2019-01-25T17:23:40.465Z,30.55
2019-01-25T17:26:11.782Z,44.23
2019-01-25T17:28:43.143Z,42.03
2019-01-25T17:31:13.346Z,54.93
2019-01-25T17:33:44.663Z,74.27
2019-01-25T17:36:15.984Z,78.07
2019-01-25T17:38:47.823Z,55.85
2019-01-25T17:41:18.984Z,54.48
2019-01-25T17:43:50.235Z,43.45
2019-01-25T17:46:22.006Z,40.23
2019-01-25T17:48:53.075Z,49.85
2019-01-25T17:51:24.155Z,39.00
2019-01-25T17:53:56.222Z,37.65
2019-01-25T17:56:27.465Z,37.95
2019-01-25T17:58:59.872Z,36.10
2019-01-25T18:01:30.114Z,21.60
2019-01-25T18:04:03.422Z,37.85
2019-01-25T18:06:36.632Z,48.60
2019-01-25T18:09:08.390Z,41.75
2019-01-25T18:11:40.130Z,44.85
2019-01-25T18:14:11.421Z,47.33
2019-01-25T18:16:42.750Z,52.08
2019-01-25T18:19:16.393Z,59.75
2019-01-25T18:21:47.661Z,60.88
2019-01-25T18:24:19.486Z,50.05
2019-01-25T18:26:50.729Z,59.30
2019-01-25T18:29:23.325Z,56.05
2019-01-25T18:31:54.712Z,23.02
2019-01-25T18:34:26.097Z,56.10
2019-01-25T18:36:57.388Z,49.33
2019-01-25T18:39:27.624Z,48.05
2019-01-25T18:42:00.343Z,76.67
2019-01-25T18:44:32.270Z,69.80
2019-01-25T18:47:05.507Z,53.15
2019-01-25T18:49:38.223Z,40.33
2019-01-25T18:52:09.070Z,57.62
2019-01-25T18:54:39.430Z,49.53
2019-01-25T18:57:10.745Z,50.30
2019-01-25T18:59:42.025Z,17.57
2019-01-25T19:02:12.702Z,44.60
2019-01-25T19:04:44.105Z,32.20
2019-01-25T19:07:15.588Z,44.55
2019-01-25T19:09:47.005Z,51.15
2019-01-25T19:25:26.490Z,52.75
2019-01-25T19:27:59.456Z,22.58
2019-01-25T19:30:36.541Z,23.45
2019-01-25T19:33:10.129Z,28.73
2019-01-25T19:35:43.931Z,14.58
2019-01-25T19:38:14.651Z,28.10
2019-01-25T19:40:46.210Z,8.65
2019-01-25T19:43:16.620Z,36.13
2019-01-25T19:45:48.170Z,45.52
2019-01-25T19:48:19.733Z,22.77
2019-01-25T19:50:51.259Z,6.30
2019-01-25T19:53:23.737Z,27.15
2019-01-25T19:55:54.138Z,27.42
2019-01-25T19:58:27.106Z,19.35
2019-01-25T20:00:58.652Z,13.65
2019-01-25T20:03:32.569Z,18.35
2019-01-25T20:06:02.942Z,30.27
2019-01-25T20:08:35.398Z,24.87
2019-01-25T20:11:09.506Z,26.77
2019-01-25T20:13:41.178Z,32.00
2019-01-25T20:16:12.849Z,21.55
2019-01-25T20:18:43.410Z,14.85
2019-01-25T20:21:15.137Z,18.15
2019-01-25T20:23:46.610Z,24.25
2019-01-25T20:26:19.614Z,14.55
2019-01-25T20:28:50.778Z,6.30
2019-01-25T20:31:22.374Z,12.63
2019-01-25T20:33:54.015Z,9.25
2019-01-25T20:36:25.699Z,30.10
2019-01-25T20:38:57.372Z,22.50
2019-01-25T20:41:29.011Z,33.50
2019-01-25T20:44:00.730Z,42.20
2019-01-25T20:46:32.348Z,32.55
2019-01-25T20:49:04.049Z,46.68
2019-01-25T20:51:35.609Z,32.33
2019-01-25T20:54:07.300Z,62.78
2019-01-25T20:56:38.976Z,15.63
2019-01-25T20:59:10.610Z,27.35
2019-01-25T21:01:42.292Z,15.65
2019-01-25T21:04:12.732Z,26.30
2019-01-25T21:06:44.412Z,26.00
2019-01-25T21:09:16.050Z,14.25
2019-01-25T21:11:47.652Z,16.90
2019-01-25T21:14:19.371Z,33.50
2019-01-25T21:16:50.939Z,20.37
2019-01-25T21:19:25.011Z,17.40
2019-01-25T21:21:55.531Z,37.17
2019-01-25T21:24:27.170Z,27.10
2019-01-25T21:26:59.104Z,40.30
2019-01-25T21:29:30.814Z,40.12
2019-01-25T21:32:01.211Z,7.65
2019-01-25T21:34:32.899Z,25.85
2019-01-25T21:37:04.380Z,13.93
2019-01-25T21:39:35.935Z,11.15
2019-01-25T21:42:07.495Z,24.95
2019-01-25T21:44:39.011Z,13.58
2019-01-25T21:47:09.603Z,13.68
2019-01-25T21:49:41.919Z,18.52
2019-01-25T21:52:13.561Z,11.83
2019-01-25T21:54:45.158Z,18.32
2019-01-25T21:57:16.617Z,29.27
2019-01-25T21:59:46.969Z,11.50
2019-01-25T22:02:18.519Z,6.70
2019-01-25T22:04:49.846Z,10.68
2019-01-25T22:07:21.091Z,26.87
2019-01-25T22:09:52.521Z,14.95
2019-01-25T22:12:26.377Z,21.57
2019-01-25T22:14:57.686Z,6.53
2019-01-25T22:17:29.326Z,18.10
2019-01-25T22:20:00.766Z,16.62
2019-01-25T22:22:32.246Z,16.12
2019-01-25T22:25:03.805Z,7.03
2019-01-25T22:27:36.558Z,14.03
2019-01-25T22:30:12.918Z,9.15
2019-01-25T22:32:44.365Z,28.15
2019-01-25T22:35:13.925Z,38.80
2019-01-25T22:37:44.241Z,36.53
2019-01-25T22:40:18.517Z,17.67
2019-01-25T22:42:49.918Z,13.72
2019-01-25T22:45:23.238Z,4.90
2019-01-25T22:47:54.679Z,37.98
2019-01-25T22:50:28.039Z,20.95
2019-01-25T22:52:59.473Z,51.65
2019-01-25T22:55:29.558Z,34.60
2019-01-25T22:58:01.153Z,56.77
2019-01-25T23:00:51.609Z,47.73
2019-01-25T23:03:25.993Z,24.10
2019-01-25T23:06:32.481Z,24.12
2019-01-25T23:09:07.913Z,16.95
2019-01-25T23:11:39.247Z,15.95
2019-01-25T23:14:10.642Z,6.40
2019-01-25T23:16:40.714Z,46.15
2019-01-25T23:19:14.515Z,33.10
2019-01-25T23:21:46.044Z,34.33
2019-01-25T23:24:17.393Z,49.83
2019-01-25T23:26:48.875Z,26.35
2019-01-25T23:29:20.282Z,23.92
2019-01-25T23:31:51.682Z,20.20
2019-01-25T23:34:22.953Z,28.95
2019-01-25T23:36:56.675Z,25.77
2019-01-25T23:39:27.914Z,20.80
2019-01-25T23:42:01.560Z,22.58
2019-01-25T23:44:32.914Z,19.87
2019-01-25T23:47:04.273Z,9.73
2019-01-25T23:49:35.754Z,22.10
2019-01-25T23:52:07.153Z,9.88
2019-01-25T23:54:40.874Z,34.05
2019-01-25T23:57:11.153Z,22.58
2019-01-25T23:59:43.921Z,24.37
